sensor_id;sensor_type;location;lat;lon;timestamp;P1;durP1;ratioP1;P2;durP2;ratioP2
53903;SDS011;39812;52.430;16.936;2023-12-14T00:00:54;59.72;;;17.63;;
53903;SDS011;39812;52.430;16.936;2023-12-14T00:03:20;58.60;;;18.45;;
53903;SDS011;39812;52.430;16.936;2023-12-14T00:05:46;58.70;;;17.55;;
53903;SDS011;39812;52.430;16.936;2023-12-14T00:08:11;63.60;;;18.25;;
53903;SDS011;39812;52.430;16.936;2023-12-14T00:10:37;58.45;;;17.92;;
53903;SDS011;39812;52.430;16.936;2023-12-14T00:13:03;54.53;;;16.25;;
53903;SDS011;39812;52.430;16.936;2023-12-14T00:15:31;56.72;;;18.27;;
53903;SDS011;39812;52.430;16.936;2023-12-14T00:17:57;50.92;;;16.13;;
53903;SDS011;39812;52.430;16.936;2023-12-14T00:20:23;46.53;;;14.80;;
53903;SDS011;39812;52.430;16.936;2023-12-14T00:22:49;57.78;;;16.77;;
53903;SDS011;39812;52.430;16.936;2023-12-14T00:25:15;50.85;;;16.98;;
53903;SDS011;39812;52.430;16.936;2023-12-14T00:27:41;52.30;;;16.70;;
53903;SDS011;39812;52.430;16.936;2023-12-14T00:30:07;53.60;;;16.27;;
53903;SDS011;39812;52.430;16.936;2023-12-14T00:32:33;50.90;;;15.63;;
53903;SDS011;39812;52.430;16.936;2023-12-14T00:35:00;50.72;;;14.55;;
53903;SDS011;39812;52.430;16.936;2023-12-14T00:37:26;50.33;;;16.63;;
53903;SDS011;39812;52.430;16.936;2023-12-14T00:39:52;59.22;;;17.10;;
53903;SDS011;39812;52.430;16.936;2023-12-14T00:42:19;55.33;;;16.10;;
53903;SDS011;39812;52.430;16.936;2023-12-14T00:44:45;57.42;;;16.48;;
53903;SDS011;39812;52.430;16.936;2023-12-14T00:47:11;57.00;;;16.35;;
53903;SDS011;39812;52.430;16.936;2023-12-14T00:49:38;58.58;;;15.55;;
53903;SDS011;39812;52.430;16.936;2023-12-14T00:52:04;69.47;;;16.95;;
53903;SDS011;39812;52.430;16.936;2023-12-14T00:54:30;57.75;;;15.13;;
53903;SDS011;39812;52.430;16.936;2023-12-14T00:56:56;53.95;;;15.18;;
53903;SDS011;39812;52.430;16.936;2023-12-14T00:59:22;60.65;;;16.65;;
53903;SDS011;39812;52.430;16.936;2023-12-14T01:01:48;61.13;;;17.00;;
53903;SDS011;39812;52.430;16.936;2023-12-14T01:04:14;61.42;;;15.80;;
53903;SDS011;39812;52.430;16.936;2023-12-14T01:06:40;53.65;;;16.48;;
53903;SDS011;39812;52.430;16.936;2023-12-14T01:09:06;52.75;;;14.93;;
53903;SDS011;39812;52.430;16.936;2023-12-14T01:11:33;50.75;;;14.63;;
53903;SDS011;39812;52.430;16.936;2023-12-14T01:13:59;50.67;;;16.65;;
53903;SDS011;39812;52.430;16.936;2023-12-14T01:16:25;55.85;;;16.77;;
53903;SDS011;39812;52.430;16.936;2023-12-14T01:18:52;57.47;;;15.63;;
53903;SDS011;39812;52.430;16.936;2023-12-14T01:21:18;44.95;;;14.80;;
53903;SDS011;39812;52.430;16.936;2023-12-14T01:23:44;46.47;;;14.48;;
53903;SDS011;39812;52.430;16.936;2023-12-14T01:26:10;44.63;;;14.55;;
53903;SDS011;39812;52.430;16.936;2023-12-14T01:28:36;51.72;;;17.10;;
53903;SDS011;39812;52.430;16.936;2023-12-14T01:31:02;48.08;;;14.80;;
53903;SDS011;39812;52.430;16.936;2023-12-14T01:33:28;39.42;;;15.02;;
53903;SDS011;39812;52.430;16.936;2023-12-14T01:35:54;41.67;;;13.88;;
53903;SDS011;39812;52.430;16.936;2023-12-14T01:38:20;41.10;;;14.23;;
53903;SDS011;39812;52.430;16.936;2023-12-14T01:40:46;33.38;;;11.63;;
53903;SDS011;39812;52.430;16.936;2023-12-14T01:43:12;33.15;;;12.40;;
53903;SDS011;39812;52.430;16.936;2023-12-14T01:45:38;35.13;;;12.18;;
53903;SDS011;39812;52.430;16.936;2023-12-14T01:48:04;34.55;;;12.07;;
53903;SDS011;39812;52.430;16.936;2023-12-14T01:50:31;25.83;;;10.70;;
53903;SDS011;39812;52.430;16.936;2023-12-14T01:52:57;39.92;;;13.10;;
53903;SDS011;39812;52.430;16.936;2023-12-14T01:55:23;33.80;;;11.98;;
53903;SDS011;39812;52.430;16.936;2023-12-14T01:57:50;30.50;;;10.10;;
53903;SDS011;39812;52.430;16.936;2023-12-14T02:00:19;29.63;;;10.70;;
53903;SDS011;39812;52.430;16.936;2023-12-14T02:02:47;32.50;;;10.23;;
53903;SDS011;39812;52.430;16.936;2023-12-14T02:05:15;25.65;;;9.68;;
53903;SDS011;39812;52.430;16.936;2023-12-14T02:07:41;30.73;;;11.02;;
53903;SDS011;39812;52.430;16.936;2023-12-14T02:10:07;25.88;;;10.38;;
53903;SDS011;39812;52.430;16.936;2023-12-14T02:12:33;28.38;;;10.65;;
53903;SDS011;39812;52.430;16.936;2023-12-14T02:15:00;28.48;;;11.10;;
53903;SDS011;39812;52.430;16.936;2023-12-14T02:17:26;35.95;;;12.35;;
53903;SDS011;39812;52.430;16.936;2023-12-14T02:19:52;32.95;;;8.98;;
53903;SDS011;39812;52.430;16.936;2023-12-14T02:22:18;30.52;;;11.32;;
53903;SDS011;39812;52.430;16.936;2023-12-14T02:24:44;27.85;;;10.05;;
53903;SDS011;39812;52.430;16.936;2023-12-14T02:27:10;33.50;;;10.55;;
53903;SDS011;39812;52.430;16.936;2023-12-14T02:29:36;30.83;;;10.35;;
53903;SDS011;39812;52.430;16.936;2023-12-14T02:32:02;29.83;;;10.07;;
53903;SDS011;39812;52.430;16.936;2023-12-14T02:34:28;22.65;;;9.10;;
53903;SDS011;39812;52.430;16.936;2023-12-14T02:36:54;26.80;;;10.48;;
53903;SDS011;39812;52.430;16.936;2023-12-14T02:39:20;47.88;;;11.38;;
53903;SDS011;39812;52.430;16.936;2023-12-14T02:41:46;28.00;;;9.68;;
53903;SDS011;39812;52.430;16.936;2023-12-14T02:44:12;24.95;;;10.45;;
53903;SDS011;39812;52.430;16.936;2023-12-14T02:46:38;26.50;;;10.77;;
53903;SDS011;39812;52.430;16.936;2023-12-14T02:49:04;27.55;;;9.38;;
53903;SDS011;39812;52.430;16.936;2023-12-14T02:51:30;25.42;;;9.88;;
53903;SDS011;39812;52.430;16.936;2023-12-14T02:53:56;25.90;;;9.75;;
53903;SDS011;39812;52.430;16.936;2023-12-14T02:56:23;23.67;;;9.48;;
53903;SDS011;39812;52.430;16.936;2023-12-14T02:58:49;29.40;;;11.13;;
53903;SDS011;39812;52.430;16.936;2023-12-14T03:01:18;26.30;;;10.00;;
53903;SDS011;39812;52.430;16.936;2023-12-14T03:03:45;27.88;;;9.45;;
53903;SDS011;39812;52.430;16.936;2023-12-14T03:06:11;28.35;;;8.82;;
53903;SDS011;39812;52.430;16.936;2023-12-14T03:08:37;27.58;;;8.75;;
53903;SDS011;39812;52.430;16.936;2023-12-14T03:11:03;22.70;;;8.93;;
53903;SDS011;39812;52.430;16.936;2023-12-14T03:13:29;23.95;;;8.88;;
53903;SDS011;39812;52.430;16.936;2023-12-14T03:15:55;17.63;;;8.15;;
53903;SDS011;39812;52.430;16.936;2023-12-14T03:18:21;20.17;;;7.57;;
53903;SDS011;39812;52.430;16.936;2023-12-14T03:20:47;16.38;;;7.22;;
53903;SDS011;39812;52.430;16.936;2023-12-14T03:23:13;14.00;;;7.15;;
53903;SDS011;39812;52.430;16.936;2023-12-14T03:25:39;18.60;;;8.43;;
53903;SDS011;39812;52.430;16.936;2023-12-14T03:28:05;18.05;;;7.30;;
53903;SDS011;39812;52.430;16.936;2023-12-14T03:30:31;14.75;;;6.22;;
53903;SDS011;39812;52.430;16.936;2023-12-14T03:32:57;18.45;;;7.38;;
53903;SDS011;39812;52.430;16.936;2023-12-14T03:35:23;18.73;;;7.05;;
53903;SDS011;39812;52.430;16.936;2023-12-14T03:37:50;17.45;;;6.32;;
53903;SDS011;39812;52.430;16.936;2023-12-14T03:40:16;15.57;;;6.57;;
53903;SDS011;39812;52.430;16.936;2023-12-14T03:42:42;12.90;;;6.50;;
53903;SDS011;39812;52.430;16.936;2023-12-14T03:45:08;20.70;;;6.13;;
53903;SDS011;39812;52.430;16.936;2023-12-14T03:47:35;18.63;;;6.72;;
53903;SDS011;39812;52.430;16.936;2023-12-14T03:50:01;16.58;;;6.97;;
53903;SDS011;39812;52.430;16.936;2023-12-14T03:52:27;16.08;;;6.38;;
53903;SDS011;39812;52.430;16.936;2023-12-14T03:54:56;13.30;;;6.45;;
53903;SDS011;39812;52.430;16.936;2023-12-14T03:57:22;15.73;;;7.03;;
53903;SDS011;39812;52.430;16.936;2023-12-14T03:59:48;16.80;;;7.05;;
53903;SDS011;39812;52.430;16.936;2023-12-14T04:02:14;18.33;;;6.80;;
53903;SDS011;39812;52.430;16.936;2023-12-14T04:04:40;18.88;;;7.07;;
53903;SDS011;39812;52.430;16.936;2023-12-14T04:07:06;14.45;;;6.55;;
53903;SDS011;39812;52.430;16.936;2023-12-14T04:09:32;17.20;;;7.53;;
53903;SDS011;39812;52.430;16.936;2023-12-14T04:11:58;14.73;;;6.95;;
53903;SDS011;39812;52.430;16.936;2023-12-14T04:14:24;17.92;;;7.25;;
53903;SDS011;39812;52.430;16.936;2023-12-14T04:16:50;20.20;;;7.20;;
53903;SDS011;39812;52.430;16.936;2023-12-14T04:19:16;12.45;;;5.47;;
53903;SDS011;39812;52.430;16.936;2023-12-14T04:21:42;16.52;;;7.57;;
53903;SDS011;39812;52.430;16.936;2023-12-14T04:24:08;19.35;;;7.72;;
53903;SDS011;39812;52.430;16.936;2023-12-14T04:26:34;18.55;;;7.20;;
53903;SDS011;39812;52.430;16.936;2023-12-14T04:29:01;19.52;;;7.80;;
53903;SDS011;39812;52.430;16.936;2023-12-14T04:31:27;19.75;;;7.15;;
53903;SDS011;39812;52.430;16.936;2023-12-14T04:33:53;16.83;;;6.75;;
53903;SDS011;39812;52.430;16.936;2023-12-14T04:36:19;16.15;;;7.13;;
53903;SDS011;39812;52.430;16.936;2023-12-14T04:38:45;16.90;;;7.32;;
53903;SDS011;39812;52.430;16.936;2023-12-14T04:41:12;20.63;;;7.53;;
53903;SDS011;39812;52.430;16.936;2023-12-14T04:43:38;19.45;;;8.07;;
53903;SDS011;39812;52.430;16.936;2023-12-14T04:46:04;16.55;;;8.45;;
53903;SDS011;39812;52.430;16.936;2023-12-14T04:48:31;17.48;;;6.90;;
53903;SDS011;39812;52.430;16.936;2023-12-14T04:50:57;22.35;;;7.63;;
53903;SDS011;39812;52.430;16.936;2023-12-14T04:53:23;21.23;;;8.30;;
53903;SDS011;39812;52.430;16.936;2023-12-14T04:55:49;18.85;;;8.82;;
53903;SDS011;39812;52.430;16.936;2023-12-14T04:58:15;18.05;;;7.72;;
53903;SDS011;39812;52.430;16.936;2023-12-14T05:00:41;20.52;;;7.70;;
53903;SDS011;39812;52.430;16.936;2023-12-14T05:03:07;17.00;;;7.03;;
53903;SDS011;39812;52.430;16.936;2023-12-14T05:05:33;18.15;;;9.00;;
53903;SDS011;39812;52.430;16.936;2023-12-14T05:07:59;19.92;;;8.05;;
53903;SDS011;39812;52.430;16.936;2023-12-14T05:10:25;20.42;;;7.82;;
53903;SDS011;39812;52.430;16.936;2023-12-14T05:12:51;22.13;;;8.02;;
53903;SDS011;39812;52.430;16.936;2023-12-14T05:15:17;19.70;;;8.82;;
53903;SDS011;39812;52.430;16.936;2023-12-14T05:17:45;18.65;;;8.45;;
53903;SDS011;39812;52.430;16.936;2023-12-14T05:20:11;17.23;;;7.32;;
53903;SDS011;39812;52.430;16.936;2023-12-14T05:22:37;19.50;;;8.00;;
53903;SDS011;39812;52.430;16.936;2023-12-14T05:25:03;21.95;;;7.97;;
53903;SDS011;39812;52.430;16.936;2023-12-14T05:27:29;27.23;;;9.45;;
53903;SDS011;39812;52.430;16.936;2023-12-14T05:29:55;26.65;;;9.35;;
53903;SDS011;39812;52.430;16.936;2023-12-14T05:32:21;25.45;;;8.95;;
53903;SDS011;39812;52.430;16.936;2023-12-14T05:34:47;23.30;;;9.55;;
53903;SDS011;39812;52.430;16.936;2023-12-14T05:37:13;27.88;;;9.63;;
53903;SDS011;39812;52.430;16.936;2023-12-14T05:39:42;20.88;;;8.07;;
53903;SDS011;39812;52.430;16.936;2023-12-14T05:42:10;24.80;;;10.00;;
53903;SDS011;39812;52.430;16.936;2023-12-14T05:44:36;23.85;;;9.52;;
53903;SDS011;39812;52.430;16.936;2023-12-14T05:47:03;22.30;;;8.52;;
53903;SDS011;39812;52.430;16.936;2023-12-14T05:49:29;21.10;;;9.10;;
53903;SDS011;39812;52.430;16.936;2023-12-14T05:51:57;24.08;;;9.20;;
53903;SDS011;39812;52.430;16.936;2023-12-14T05:54:24;23.45;;;9.95;;
53903;SDS011;39812;52.430;16.936;2023-12-14T05:56:50;21.92;;;9.00;;
53903;SDS011;39812;52.430;16.936;2023-12-14T05:59:16;23.08;;;9.13;;
53903;SDS011;39812;52.430;16.936;2023-12-14T06:01:42;23.23;;;9.32;;
53903;SDS011;39812;52.430;16.936;2023-12-14T06:04:08;19.17;;;8.43;;
53903;SDS011;39812;52.430;16.936;2023-12-14T06:06:34;23.17;;;9.07;;
53903;SDS011;39812;52.430;16.936;2023-12-14T06:09:00;20.00;;;8.65;;
53903;SDS011;39812;52.430;16.936;2023-12-14T06:11:27;22.50;;;8.02;;
53903;SDS011;39812;52.430;16.936;2023-12-14T06:13:53;19.65;;;9.15;;
53903;SDS011;39812;52.430;16.936;2023-12-14T06:16:19;20.23;;;8.05;;
53903;SDS011;39812;52.430;16.936;2023-12-14T06:18:45;21.42;;;7.88;;
53903;SDS011;39812;52.430;16.936;2023-12-14T06:21:11;22.98;;;8.65;;
53903;SDS011;39812;52.430;16.936;2023-12-14T06:23:38;20.83;;;8.40;;
53903;SDS011;39812;52.430;16.936;2023-12-14T06:26:04;15.50;;;8.18;;
53903;SDS011;39812;52.430;16.936;2023-12-14T06:28:30;17.65;;;8.27;;
53903;SDS011;39812;52.430;16.936;2023-12-14T06:30:56;20.58;;;7.90;;
53903;SDS011;39812;52.430;16.936;2023-12-14T06:33:23;19.33;;;8.35;;
53903;SDS011;39812;52.430;16.936;2023-12-14T06:35:49;15.85;;;7.85;;
53903;SDS011;39812;52.430;16.936;2023-12-14T06:38:15;21.42;;;8.45;;
53903;SDS011;39812;52.430;16.936;2023-12-14T06:40:41;16.52;;;7.82;;
53903;SDS011;39812;52.430;16.936;2023-12-14T06:43:07;23.88;;;8.73;;
53903;SDS011;39812;52.430;16.936;2023-12-14T06:45:36;19.77;;;7.60;;
53903;SDS011;39812;52.430;16.936;2023-12-14T06:48:02;20.73;;;8.00;;
53903;SDS011;39812;52.430;16.936;2023-12-14T06:50:29;19.55;;;7.82;;
53903;SDS011;39812;52.430;16.936;2023-12-14T06:52:55;18.50;;;7.88;;
53903;SDS011;39812;52.430;16.936;2023-12-14T06:55:21;17.15;;;8.00;;
53903;SDS011;39812;52.430;16.936;2023-12-14T06:57:47;17.15;;;7.50;;
53903;SDS011;39812;52.430;16.936;2023-12-14T07:00:13;18.67;;;7.43;;
53903;SDS011;39812;52.430;16.936;2023-12-14T07:02:39;21.30;;;8.15;;
53903;SDS011;39812;52.430;16.936;2023-12-14T07:05:05;18.23;;;7.47;;
53903;SDS011;39812;52.430;16.936;2023-12-14T07:07:31;15.55;;;7.15;;
53903;SDS011;39812;52.430;16.936;2023-12-14T07:09:57;20.75;;;8.30;;
53903;SDS011;39812;52.430;16.936;2023-12-14T07:12:23;19.50;;;8.68;;
53903;SDS011;39812;52.430;16.936;2023-12-14T07:14:49;25.98;;;7.93;;
53903;SDS011;39812;52.430;16.936;2023-12-14T07:17:15;21.17;;;8.50;;
53903;SDS011;39812;52.430;16.936;2023-12-14T07:19:41;20.08;;;8.85;;
53903;SDS011;39812;52.430;16.936;2023-12-14T07:22:07;18.85;;;8.57;;
53903;SDS011;39812;52.430;16.936;2023-12-14T07:24:33;21.27;;;7.80;;
53903;SDS011;39812;52.430;16.936;2023-12-14T07:26:59;21.27;;;8.65;;
53903;SDS011;39812;52.430;16.936;2023-12-14T07:29:25;18.58;;;7.10;;
53903;SDS011;39812;52.430;16.936;2023-12-14T07:31:52;15.05;;;8.13;;
53903;SDS011;39812;52.430;16.936;2023-12-14T07:34:18;21.77;;;7.43;;
53903;SDS011;39812;52.430;16.936;2023-12-14T07:36:45;18.65;;;7.25;;
53903;SDS011;39812;52.430;16.936;2023-12-14T07:39:11;20.65;;;8.25;;
53903;SDS011;39812;52.430;16.936;2023-12-14T07:41:37;17.90;;;7.75;;
53903;SDS011;39812;52.430;16.936;2023-12-14T07:44:03;19.60;;;7.43;;
53903;SDS011;39812;52.430;16.936;2023-12-14T07:46:29;19.10;;;7.93;;
53903;SDS011;39812;52.430;16.936;2023-12-14T07:48:55;18.65;;;8.23;;
53903;SDS011;39812;52.430;16.936;2023-12-14T07:51:21;20.45;;;8.52;;
53903;SDS011;39812;52.430;16.936;2023-12-14T07:53:47;16.73;;;7.80;;
53903;SDS011;39812;52.430;16.936;2023-12-14T07:56:13;18.60;;;7.57;;
53903;SDS011;39812;52.430;16.936;2023-12-14T07:58:39;20.52;;;9.02;;
53903;SDS011;39812;52.430;16.936;2023-12-14T08:01:06;19.30;;;8.10;;
53903;SDS011;39812;52.430;16.936;2023-12-14T08:03:32;19.05;;;8.52;;
53903;SDS011;39812;52.430;16.936;2023-12-14T08:05:58;18.25;;;7.55;;
53903;SDS011;39812;52.430;16.936;2023-12-14T08:08:24;17.77;;;9.10;;
53903;SDS011;39812;52.430;16.936;2023-12-14T08:10:50;20.27;;;8.25;;
53903;SDS011;39812;52.430;16.936;2023-12-14T08:13:16;21.95;;;8.57;;
53903;SDS011;39812;52.430;16.936;2023-12-14T08:15:42;18.40;;;8.25;;
53903;SDS011;39812;52.430;16.936;2023-12-14T08:18:08;20.02;;;7.75;;
53903;SDS011;39812;52.430;16.936;2023-12-14T08:20:34;20.55;;;7.70;;
53903;SDS011;39812;52.430;16.936;2023-12-14T08:23:00;20.38;;;7.57;;
53903;SDS011;39812;52.430;16.936;2023-12-14T08:25:26;17.30;;;7.60;;
53903;SDS011;39812;52.430;16.936;2023-12-14T08:27:52;19.08;;;7.40;;
53903;SDS011;39812;52.430;16.936;2023-12-14T08:30:18;21.63;;;8.38;;
53903;SDS011;39812;52.430;16.936;2023-12-14T08:32:44;20.85;;;9.30;;
53903;SDS011;39812;52.430;16.936;2023-12-14T08:35:10;17.60;;;8.18;;
53903;SDS011;39812;52.430;16.936;2023-12-14T08:37:36;21.85;;;8.57;;
53903;SDS011;39812;52.430;16.936;2023-12-14T08:40:02;18.52;;;7.43;;
53903;SDS011;39812;52.430;16.936;2023-12-14T08:42:28;17.67;;;8.10;;
53903;SDS011;39812;52.430;16.936;2023-12-14T08:44:54;19.38;;;8.88;;
53903;SDS011;39812;52.430;16.936;2023-12-14T08:47:20;19.83;;;7.65;;
53903;SDS011;39812;52.430;16.936;2023-12-14T08:49:46;18.90;;;7.80;;
53903;SDS011;39812;52.430;16.936;2023-12-14T08:52:13;17.70;;;7.88;;
53903;SDS011;39812;52.430;16.936;2023-12-14T08:54:39;16.52;;;7.90;;
53903;SDS011;39812;52.430;16.936;2023-12-14T08:57:08;17.48;;;6.97;;
53903;SDS011;39812;52.430;16.936;2023-12-14T08:59:34;18.25;;;7.65;;
53903;SDS011;39812;52.430;16.936;2023-12-14T09:02:00;19.23;;;8.25;;
53903;SDS011;39812;52.430;16.936;2023-12-14T09:04:26;16.45;;;7.70;;
53903;SDS011;39812;52.430;16.936;2023-12-14T09:06:52;16.38;;;7.95;;
53903;SDS011;39812;52.430;16.936;2023-12-14T09:09:18;18.52;;;7.30;;
53903;SDS011;39812;52.430;16.936;2023-12-14T09:11:45;16.15;;;6.78;;
53903;SDS011;39812;52.430;16.936;2023-12-14T09:14:11;18.15;;;6.93;;
53903;SDS011;39812;52.430;16.936;2023-12-14T09:16:37;14.82;;;7.03;;
53903;SDS011;39812;52.430;16.936;2023-12-14T09:19:03;19.80;;;7.40;;
53903;SDS011;39812;52.430;16.936;2023-12-14T09:21:29;16.70;;;7.28;;
53903;SDS011;39812;52.430;16.936;2023-12-14T09:23:55;19.27;;;7.45;;
53903;SDS011;39812;52.430;16.936;2023-12-14T09:26:21;19.35;;;8.38;;
53903;SDS011;39812;52.430;16.936;2023-12-14T09:28:47;16.83;;;7.68;;
53903;SDS011;39812;52.430;16.936;2023-12-14T09:31:13;19.88;;;8.00;;
53903;SDS011;39812;52.430;16.936;2023-12-14T09:33:41;18.75;;;8.32;;
53903;SDS011;39812;52.430;16.936;2023-12-14T09:36:07;15.13;;;8.48;;
53903;SDS011;39812;52.430;16.936;2023-12-14T09:38:33;15.25;;;7.07;;
53903;SDS011;39812;52.430;16.936;2023-12-14T09:41:01;20.15;;;7.95;;
53903;SDS011;39812;52.430;16.936;2023-12-14T09:43:27;13.55;;;6.85;;
53903;SDS011;39812;52.430;16.936;2023-12-14T09:45:54;13.48;;;6.65;;
53903;SDS011;39812;52.430;16.936;2023-12-14T09:48:20;13.48;;;6.32;;
53903;SDS011;39812;52.430;16.936;2023-12-14T09:50:47;9.73;;;5.47;;
53903;SDS011;39812;52.430;16.936;2023-12-14T09:53:15;13.32;;;6.15;;
53903;SDS011;39812;52.430;16.936;2023-12-14T09:55:41;16.42;;;7.78;;
53903;SDS011;39812;52.430;16.936;2023-12-14T09:58:07;19.30;;;7.90;;
53903;SDS011;39812;52.430;16.936;2023-12-14T10:00:38;16.90;;;7.15;;
53903;SDS011;39812;52.430;16.936;2023-12-14T10:05:51;19.40;;;7.78;;
53903;SDS011;39812;52.430;16.936;2023-12-14T10:08:17;19.73;;;8.27;;
53903;SDS011;39812;52.430;16.936;2023-12-14T10:10:43;13.02;;;6.55;;
53903;SDS011;39812;52.430;16.936;2023-12-14T10:13:09;25.50;;;8.18;;
53903;SDS011;39812;52.430;16.936;2023-12-14T10:15:43;15.82;;;7.85;;
53903;SDS011;39812;52.430;16.936;2023-12-14T10:18:09;16.02;;;6.78;;
53903;SDS011;39812;52.430;16.936;2023-12-14T10:20:36;15.45;;;7.85;;
53903;SDS011;39812;52.430;16.936;2023-12-14T10:23:03;15.10;;;7.55;;
53903;SDS011;39812;52.430;16.936;2023-12-14T10:25:29;13.10;;;6.65;;
53903;SDS011;39812;52.430;16.936;2023-12-14T10:27:56;16.58;;;6.97;;
53903;SDS011;39812;52.430;16.936;2023-12-14T10:30:22;17.02;;;7.55;;
53903;SDS011;39812;52.430;16.936;2023-12-14T10:32:49;16.05;;;8.02;;
53903;SDS011;39812;52.430;16.936;2023-12-14T10:35:16;13.75;;;7.03;;
53903;SDS011;39812;52.430;16.936;2023-12-14T10:37:44;17.95;;;7.32;;
53903;SDS011;39812;52.430;16.936;2023-12-14T10:40:10;13.75;;;6.50;;
53903;SDS011;39812;52.430;16.936;2023-12-14T10:42:37;13.93;;;8.05;;
53903;SDS011;39812;52.430;16.936;2023-12-14T10:45:04;13.90;;;7.13;;
53903;SDS011;39812;52.430;16.936;2023-12-14T10:47:31;16.20;;;6.53;;
53903;SDS011;39812;52.430;16.936;2023-12-14T10:49:58;18.55;;;7.68;;
53903;SDS011;39812;52.430;16.936;2023-12-14T10:52:26;16.42;;;6.47;;
53903;SDS011;39812;52.430;16.936;2023-12-14T10:54:54;12.68;;;6.10;;
53903;SDS011;39812;52.430;16.936;2023-12-14T10:57:22;17.25;;;7.32;;
53903;SDS011;39812;52.430;16.936;2023-12-14T10:59:57;10.32;;;6.18;;
53903;SDS011;39812;52.430;16.936;2023-12-14T11:02:24;14.27;;;6.93;;
53903;SDS011;39812;52.430;16.936;2023-12-14T11:04:53;13.00;;;6.05;;
53903;SDS011;39812;52.430;16.936;2023-12-14T11:07:42;13.25;;;5.85;;
53903;SDS011;39812;52.430;16.936;2023-12-14T11:10:07;14.75;;;6.93;;
53903;SDS011;39812;52.430;16.936;2023-12-14T11:12:34;12.75;;;6.50;;
53903;SDS011;39812;52.430;16.936;2023-12-14T11:15:00;15.25;;;6.63;;
53903;SDS011;39812;52.430;16.936;2023-12-14T11:17:26;11.23;;;6.03;;
53903;SDS011;39812;52.430;16.936;2023-12-14T11:19:54;14.88;;;6.95;;
53903;SDS011;39812;52.430;16.936;2023-12-14T11:22:24;13.82;;;6.75;;
53903;SDS011;39812;52.430;16.936;2023-12-14T11:24:52;14.35;;;7.57;;
53903;SDS011;39812;52.430;16.936;2023-12-14T11:27:25;15.60;;;7.30;;
53903;SDS011;39812;52.430;16.936;2023-12-14T11:29:53;9.73;;;6.03;;
53903;SDS011;39812;52.430;16.936;2023-12-14T11:32:19;12.57;;;7.05;;
53903;SDS011;39812;52.430;16.936;2023-12-14T11:34:46;12.10;;;6.78;;
53903;SDS011;39812;52.430;16.936;2023-12-14T11:37:12;12.63;;;6.30;;
53903;SDS011;39812;52.430;16.936;2023-12-14T11:39:39;12.30;;;6.13;;
53903;SDS011;39812;52.430;16.936;2023-12-14T11:42:05;13.90;;;6.70;;
53903;SDS011;39812;52.430;16.936;2023-12-14T11:44:33;11.73;;;5.82;;
53903;SDS011;39812;52.430;16.936;2023-12-14T11:47:00;13.00;;;6.70;;
53903;SDS011;39812;52.430;16.936;2023-12-14T11:49:26;13.00;;;6.78;;
53903;SDS011;39812;52.430;16.936;2023-12-14T11:51:54;15.10;;;7.45;;
53903;SDS011;39812;52.430;16.936;2023-12-14T11:54:20;12.93;;;6.20;;
53903;SDS011;39812;52.430;16.936;2023-12-14T11:56:49;14.30;;;6.75;;
53903;SDS011;39812;52.430;16.936;2023-12-14T11:59:18;12.27;;;6.40;;
53903;SDS011;39812;52.430;16.936;2023-12-14T12:04:22;14.75;;;6.88;;
53903;SDS011;39812;52.430;16.936;2023-12-14T12:06:48;12.65;;;6.28;;
53903;SDS011;39812;52.430;16.936;2023-12-14T12:09:14;12.43;;;6.40;;
53903;SDS011;39812;52.430;16.936;2023-12-14T12:11:57;10.75;;;6.18;;
53903;SDS011;39812;52.430;16.936;2023-12-14T12:14:23;14.88;;;6.95;;
53903;SDS011;39812;52.430;16.936;2023-12-14T12:16:49;12.70;;;6.68;;
53903;SDS011;39812;52.430;16.936;2023-12-14T12:19:17;15.23;;;6.93;;
53903;SDS011;39812;52.430;16.936;2023-12-14T12:21:44;12.65;;;5.90;;
53903;SDS011;39812;52.430;16.936;2023-12-14T12:24:09;10.95;;;6.60;;
53903;SDS011;39812;52.430;16.936;2023-12-14T12:26:35;13.93;;;6.10;;
53903;SDS011;39812;52.430;16.936;2023-12-14T12:29:01;13.55;;;6.35;;
53903;SDS011;39812;52.430;16.936;2023-12-14T12:31:30;10.65;;;5.28;;
53903;SDS011;39812;52.430;16.936;2023-12-14T12:33:57;14.05;;;6.45;;
53903;SDS011;39812;52.430;16.936;2023-12-14T12:36:23;12.77;;;6.55;;
53903;SDS011;39812;52.430;16.936;2023-12-14T12:38:49;14.63;;;6.47;;
53903;SDS011;39812;52.430;16.936;2023-12-14T12:41:16;14.35;;;6.00;;
53903;SDS011;39812;52.430;16.936;2023-12-14T12:43:42;15.90;;;5.78;;
53903;SDS011;39812;52.430;16.936;2023-12-14T12:46:09;18.05;;;6.75;;
53903;SDS011;39812;52.430;16.936;2023-12-14T12:48:35;10.60;;;5.30;;
53903;SDS011;39812;52.430;16.936;2023-12-14T12:51:01;11.88;;;5.00;;
53903;SDS011;39812;52.430;16.936;2023-12-14T12:53:28;11.93;;;5.68;;
53903;SDS011;39812;52.430;16.936;2023-12-14T12:55:53;12.23;;;5.35;;
53903;SDS011;39812;52.430;16.936;2023-12-14T12:58:20;12.18;;;6.35;;
53903;SDS011;39812;52.430;16.936;2023-12-14T13:00:46;11.75;;;5.65;;
53903;SDS011;39812;52.430;16.936;2023-12-14T13:03:12;11.73;;;6.45;;
53903;SDS011;39812;52.430;16.936;2023-12-14T13:05:38;9.27;;;4.82;;
53903;SDS011;39812;52.430;16.936;2023-12-14T13:08:04;13.95;;;6.65;;
53903;SDS011;39812;52.430;16.936;2023-12-14T13:10:30;12.75;;;5.22;;
53903;SDS011;39812;52.430;16.936;2023-12-14T13:12:56;14.90;;;6.30;;
53903;SDS011;39812;52.430;16.936;2023-12-14T13:15:22;11.73;;;5.65;;
53903;SDS011;39812;52.430;16.936;2023-12-14T13:17:53;11.00;;;5.82;;
53903;SDS011;39812;52.430;16.936;2023-12-14T13:20:20;9.85;;;5.18;;
53903;SDS011;39812;52.430;16.936;2023-12-14T13:22:46;10.52;;;5.03;;
53903;SDS011;39812;52.430;16.936;2023-12-14T13:25:12;11.77;;;6.00;;
53903;SDS011;39812;52.430;16.936;2023-12-14T13:27:39;14.27;;;5.68;;
53903;SDS011;39812;52.430;16.936;2023-12-14T13:30:06;12.95;;;5.93;;
53903;SDS011;39812;52.430;16.936;2023-12-14T13:32:33;10.40;;;5.35;;
53903;SDS011;39812;52.430;16.936;2023-12-14T13:34:59;12.23;;;5.95;;
53903;SDS011;39812;52.430;16.936;2023-12-14T13:37:25;9.73;;;4.32;;
53903;SDS011;39812;52.430;16.936;2023-12-14T13:39:51;7.88;;;3.92;;
53903;SDS011;39812;52.430;16.936;2023-12-14T13:42:18;10.77;;;4.78;;
53903;SDS011;39812;52.430;16.936;2023-12-14T13:44:44;9.48;;;4.63;;
53903;SDS011;39812;52.430;16.936;2023-12-14T13:47:10;10.93;;;4.40;;
53903;SDS011;39812;52.430;16.936;2023-12-14T13:49:36;12.40;;;5.07;;
53903;SDS011;39812;52.430;16.936;2023-12-14T13:52:03;11.63;;;5.25;;
53903;SDS011;39812;52.430;16.936;2023-12-14T13:54:29;8.88;;;5.05;;
53903;SDS011;39812;52.430;16.936;2023-12-14T13:56:55;10.43;;;5.18;;
53903;SDS011;39812;52.430;16.936;2023-12-14T13:59:21;12.25;;;4.65;;
53903;SDS011;39812;52.430;16.936;2023-12-14T14:01:47;10.98;;;5.03;;
53903;SDS011;39812;52.430;16.936;2023-12-14T14:04:16;10.25;;;5.45;;
53903;SDS011;39812;52.430;16.936;2023-12-14T14:06:42;10.57;;;4.25;;
53903;SDS011;39812;52.430;16.936;2023-12-14T14:09:08;8.43;;;4.70;;
53903;SDS011;39812;52.430;16.936;2023-12-14T14:11:35;11.45;;;4.75;;
53903;SDS011;39812;52.430;16.936;2023-12-14T14:14:01;8.35;;;4.45;;
53903;SDS011;39812;52.430;16.936;2023-12-14T14:16:28;17.73;;;5.45;;
53903;SDS011;39812;52.430;16.936;2023-12-14T14:18:54;11.75;;;4.72;;